Time;durP1;ratioP1;P1;durP2;ratioP2;P2;SDS_P1;SDS_P2;PMS_P1;PMS_P2;Temp;Humidity;BMP_temperature;BMP_pressure;BME280_temperature;BME280_humidity;BME280_pressure;Samples;Min_cycle;Max_cycle;Signal;HPM_P1;HPM_P2
2023/06/30 00:02:04;;;;;;;4.80;2.60;;;20.40;66.90;;;;;;4970080;28;20526;-52
2023/06/30 00:04:35;;;;;;;5.18;2.63;;;20.40;67.00;;;;;;4963210;28;20126;-51
2023/06/30 00:07:05;;;;;;;2.97;2.45;;;20.40;66.60;;;;;;4972650;28;20575;-53
2023/06/30 00:09:32;;;;;;;7.20;2.53;;;20.40;66.40;;;;;;4971520;28;20146;-49
2023/06/30 00:11:59;;;;;;;3.83;2.33;;;20.40;66.20;;;;;;4964449;28;20038;-51
2023/06/30 00:14:26;;;;;;;5.43;3.08;;;20.30;67.10;;;;;;4971006;28;20047;-52
2023/06/30 00:16:56;;;;;;;2.97;2.67;;;20.30;66.70;;;;;;4972226;28;20129;-52
2023/06/30 00:19:25;;;;;;;3.42;2.90;;;20.30;66.80;;;;;;4971718;28;20050;-49
2023/06/30 00:21:52;;;;;;;3.10;2.80;;;20.30;67.10;;;;;;4968627;28;20035;-49
2023/06/30 00:24:19;;;;;;;4.07;2.47;;;20.40;67.10;;;;;;4969103;28;20050;-50
2023/06/30 00:26:50;;;;;;;2.75;2.55;;;20.30;67.20;;;;;;4971953;28;20038;-48
2023/06/30 00:29:19;;;;;;;3.20;2.70;;;20.40;67.40;;;;;;4971791;28;20094;-52
2023/06/30 00:31:46;;;;;;;5.75;2.67;;;20.40;67.50;;;;;;4964748;28;20672;-48
2023/06/30 00:34:15;;;;;;;3.75;2.70;;;20.40;67.40;;;;;;4971603;28;20050;-49
2023/06/30 00:36:45;;;;;;;5.65;2.80;;;20.40;67.10;;;;;;4978181;28;20121;-51
2023/06/30 00:39:16;;;;;;;3.75;2.30;;;20.40;67.30;;;;;;4968497;28;20098;-53
2023/06/30 00:41:43;;;;;;;5.07;2.78;;;20.40;66.90;;;;;;4966133;28;20133;-48
2023/06/30 00:44:11;;;;;;;3.97;2.70;;;20.50;67.10;;;;;;4971622;28;20035;-49
2023/06/30 00:46:38;;;;;;;3.50;3.20;;;20.50;67.30;;;;;;4971803;28;20449;-53
2023/06/30 00:49:05;;;;;;;3.67;2.63;;;20.50;67.40;;;;;;4964911;28;20098;-52
2023/06/30 00:51:32;;;;;;;2.65;2.45;;;20.50;66.90;;;;;;4956972;28;20121;-53
2023/06/30 00:53:59;;;;;;;4.88;2.95;;;20.50;66.60;;;;;;4964355;28;20612;-53
2023/06/30 00:56:28;;;;;;;4.95;2.78;;;20.50;66.40;;;;;;4966206;28;20059;-53
2023/06/30 00:58:58;;;;;;;4.70;3.20;;;20.50;66.60;;;;;;4966035;28;20039;-53
2023/06/30 01:01:42;;;;;;;3.80;2.72;;;20.50;66.30;;;;;;4969443;28;20055;-52
2023/06/30 01:04:17;;;;;;;5.70;2.67;;;20.50;66.60;;;;;;4972826;28;20110;-49
2023/06/30 01:07:05;;;;;;;6.10;3.22;;;20.50;66.70;;;;;;4968413;28;20039;-48
2023/06/30 01:09:39;;;;;;;6.97;3.28;;;20.50;66.60;;;;;;4958452;28;20467;-52
2023/06/30 01:12:10;;;;;;;4.18;3.05;;;20.40;66.60;;;;;;4969910;28;20054;-52
2023/06/30 01:14:38;;;;;;;5.03;2.45;;;20.40;66.60;;;;;;4956537;28;20059;-52
2023/06/30 01:17:06;;;;;;;3.35;2.97;;;20.40;66.60;;;;;;4970011;28;20035;-52
2023/06/30 01:19:39;;;;;;;4.53;2.97;;;20.40;66.60;;;;;;4970986;28;20050;-53
2023/06/30 01:22:34;;;;;;;7.50;3.28;;;20.40;66.80;;;;;;4969913;28;20039;-52
2023/06/30 01:25:19;;;;;;;4.65;3.30;;;20.40;66.90;;;;;;4969208;28;20933;-53
2023/06/30 01:27:46;;;;;;;6.97;3.33;;;20.40;66.80;;;;;;4950319;28;20139;-52
2023/06/30 01:30:19;;;;;;;3.90;3.50;;;20.40;66.60;;;;;;4965593;28;20046;-53
2023/06/30 01:32:54;;;;;;;8.10;4.50;;;20.30;66.50;;;;;;4966564;28;20043;-53
2023/06/30 01:35:22;;;;;;;7.57;3.72;;;20.30;67.10;;;;;;4978537;28;20066;-53
2023/06/30 01:37:50;;;;;;;6.03;4.13;;;20.30;66.90;;;;;;4956933;28;20043;-51
2023/06/30 01:40:17;;;;;;;6.65;4.63;;;20.30;66.80;;;;;;4960178;28;20066;-52
2023/06/30 01:42:45;;;;;;;6.18;4.78;;;20.30;66.60;;;;;;4957592;28;20077;-50
2023/06/30 01:45:14;;;;;;;8.35;4.57;;;20.30;66.50;;;;;;4966143;28;20035;-51
2023/06/30 01:47:46;;;;;;;8.63;5.50;;;20.20;66.60;;;;;;4970226;28;20062;-52
2023/06/30 01:50:21;;;;;;;6.43;4.38;;;20.20;66.80;;;;;;4965755;28;20065;-53
2023/06/30 01:52:47;;;;;;;5.90;4.38;;;20.20;66.90;;;;;;4964469;28;20042;-53
2023/06/30 01:55:14;;;;;;;7.15;4.38;;;20.10;67.00;;;;;;4968970;28;20043;-53
2023/06/30 01:57:43;;;;;;;6.63;4.85;;;20.10;67.20;;;;;;4970183;28;20126;-51
2023/06/30 02:00:16;;;;;;;5.43;4.60;;;20.10;67.30;;;;;;4968857;28;20046;-52
2023/06/30 02:02:46;;;;;;;6.03;4.60;;;20.10;67.20;;;;;;4968666;28;20031;-53
2023/06/30 02:05:14;;;;;;;7.85;4.50;;;20.10;67.30;;;;;;4971354;28;20047;-52
2023/06/30 02:07:42;;;;;;;8.50;5.03;;;20.00;67.30;;;;;;4968032;28;20047;-52
2023/06/30 02:10:09;;;;;;;7.00;5.00;;;20.00;67.30;;;;;;4968448;28;20600;-52
2023/06/30 02:12:38;;;;;;;9.80;4.82;;;20.00;67.40;;;;;;4962570;28;20043;-53
2023/06/30 02:15:08;;;;;;;7.53;4.97;;;20.00;67.40;;;;;;4969975;28;20035;-53
2023/06/30 02:17:35;;;;;;;8.43;4.72;;;20.00;67.50;;;;;;4970015;28;20050;-51
2023/06/30 02:20:06;;;;;;;7.00;4.97;;;20.00;67.20;;;;;;4965601;28;20392;-52
2023/06/30 02:22:37;;;;;;;10.35;5.20;;;20.00;67.00;;;;;;4969098;28;20130;-53
2023/06/30 02:25:08;;;;;;;8.07;4.32;;;20.00;66.90;;;;;;4966518;28;20125;-53
2023/06/30 02:27:37;;;;;;;7.13;4.50;;;20.00;66.90;;;;;;4968662;28;20051;-53
2023/06/30 02:30:09;;;;;;;6.00;4.72;;;20.00;67.50;;;;;;4968564;28;20046;-53
2023/06/30 02:32:39;;;;;;;6.00;4.00;;;19.90;67.00;;;;;;4953274;28;20216;-53
2023/06/30 02:35:07;;;;;;;6.95;5.00;;;19.90;66.80;;;;;;4975164;28;20088;-53
2023/06/30 02:37:34;;;;;;;11.18;5.97;;;19.90;66.90;;;;;;4972110;28;20126;-53
2023/06/30 02:40:04;;;;;;;6.80;3.92;;;19.90;67.00;;;;;;4967998;28;20050;-53
2023/06/30 02:42:31;;;;;;;7.50;4.57;;;19.90;67.20;;;;;;4973860;28;20097;-53
2023/06/30 02:45:00;;;;;;;8.88;4.22;;;19.80;67.30;;;;;;4972714;28;20574;-53
2023/06/30 02:47:30;;;;;;;9.27;4.72;;;19.80;67.40;;;;;;4966380;28;20047;-53
2023/06/30 02:49:56;;;;;;;8.98;4.18;;;19.80;67.30;;;;;;4972244;28;20527;-53
2023/06/30 02:52:32;;;;;;;11.80;5.32;;;19.80;67.30;;;;;;4959908;28;20135;-52
2023/06/30 02:54:59;;;;;;;11.57;4.13;;;19.80;67.20;;;;;;4970191;28;20066;-52
2023/06/30 02:57:25;;;;;;;7.00;3.90;;;19.80;67.00;;;;;;4969896;28;20053;-53
2023/06/30 02:59:55;;;;;;;9.15;4.03;;;19.80;67.10;;;;;;4973003;28;20053;-52
2023/06/30 03:02:27;;;;;;;8.40;4.05;;;19.80;67.20;;;;;;4971887;28;20054;-53
2023/06/30 03:04:59;;;;;;;4.90;3.80;;;19.80;67.20;;;;;;4949553;28;20727;-53
2023/06/30 03:07:28;;;;;;;8.90;4.40;;;19.80;67.10;;;;;;4972807;28;20043;-52
2023/06/30 03:09:55;;;;;;;7.68;4.00;;;19.70;67.10;;;;;;4972141;28;20090;-51
2023/06/30 03:12:26;;;;;;;7.53;4.30;;;19.70;67.20;;;;;;4966974;28;20083;-52
2023/06/30 03:14:53;;;;;;;6.90;4.50;;;19.70;67.10;;;;;;4973285;28;20050;-52
2023/06/30 03:17:24;;;;;;;8.98;5.60;;;19.80;67.00;;;;;;4972634;28;20430;-51
2023/06/30 03:19:51;;;;;;;10.93;4.95;;;19.70;67.00;;;;;;4971968;28;20053;-53
2023/06/30 03:22:17;;;;;;;8.35;4.50;;;19.80;67.20;;;;;;4972241;28;20178;-52
2023/06/30 03:24:52;;;;;;;7.43;4.13;;;19.80;67.10;;;;;;4965625;28;20059;-53
2023/06/30 03:27:26;;;;;;;12.07;3.53;;;19.70;67.00;;;;;;4972261;28;20520;-51
2023/06/30 03:29:53;;;;;;;12.65;4.20;;;19.80;66.90;;;;;;4971669;28;20047;-51
2023/06/30 03:32:19;;;;;;;8.50;4.18;;;19.70;66.80;;;;;;4967739;28;20050;-48
2023/06/30 03:34:49;;;;;;;9.77;4.18;;;19.70;66.80;;;;;;4972304;28;20045;-52
2023/06/30 03:37:15;;;;;;;8.98;4.22;;;19.70;66.90;;;;;;4972248;28;20101;-53
2023/06/30 03:39:45;;;;;;;6.95;3.67;;;19.70;67.00;;;;;;4962445;28;20047;-53
2023/06/30 03:42:12;;;;;;;9.35;3.97;;;19.70;67.10;;;;;;4970242;28;20467;-49
2023/06/30 03:44:41;;;;;;;7.68;4.95;;;19.70;67.00;;;;;;4972773;28;20451;-52
2023/06/30 03:47:07;;;;;;;8.52;4.07;;;19.70;67.60;;;;;;4972072;28;20073;-52
2023/06/30 03:49:39;;;;;;;9.32;4.00;;;19.70;67.00;;;;;;4965700;28;20055;-52
2023/06/30 03:52:06;;;;;;;6.38;3.30;;;19.70;66.90;;;;;;4967658;28;20054;-53
2023/06/30 03:54:33;;;;;;;6.20;3.60;;;19.70;66.80;;;;;;4989984;28;20050;-53
2023/06/30 03:57:03;;;;;;;5.85;3.50;;;19.60;66.60;;;;;;4966886;28;20141;-53
2023/06/30 03:59:29;;;;;;;5.13;3.70;;;19.70;66.60;;;;;;4967426;28;20047;-53
2023/06/30 04:02:03;;;;;;;8.93;3.83;;;19.70;66.40;;;;;;4967178;28;20046;-53
2023/06/30 04:04:30;;;;;;;6.90;3.85;;;19.70;66.50;;;;;;4969416;28;20290;-52
2023/06/30 04:06:57;;;;;;;7.03;3.50;;;19.60;66.40;;;;;;4965627;28;20043;-53
2023/06/30 04:09:24;;;;;;;8.35;3.58;;;19.70;66.20;;;;;;4972896;28;20054;-53
2023/06/30 04:11:53;;;;;;;12.98;4.18;;;19.60;66.10;;;;;;4965527;28;20074;-52
2023/06/30 04:14:22;;;;;;;11.07;4.82;;;19.60;66.00;;;;;;4966896;28;20397;-53
2023/06/30 04:16:51;;;;;;;6.13;3.33;;;19.60;66.20;;;;;;4962505;28;20141;-53
2023/06/30 04:19:25;;;;;;;7.90;3.78;;;19.60;66.20;;;;;;4964304;28;20093;-53
2023/06/30 04:21:52;;;;;;;7.28;3.38;;;19.60;66.30;;;;;;4964666;28;20043;-52
2023/06/30 04:24:19;;;;;;;9.05;4.28;;;19.60;66.40;;;;;;4968103;28;20039;-51
2023/06/30 04:26:48;;;;;;;5.10;3.67;;;19.60;66.60;;;;;;4964295;28;20106;-53
2023/06/30 04:29:15;;;;;;;9.35;4.35;;;19.60;66.60;;;;;;4961350;28;20655;-53
2023/06/30 04:31:47;;;;;;;8.43;3.75;;;19.60;66.70;;;;;;4961123;28;20051;-53
2023/06/30 04:34:14;;;;;;;6.77;4.10;;;19.60;66.50;;;;;;4968191;28;20161;-52
2023/06/30 04:36:43;;;;;;;6.82;4.00;;;19.60;66.50;;;;;;4971850;28;20051;-53
2023/06/30 04:39:12;;;;;;;8.00;3.47;;;19.60;66.80;;;;;;4966491;28;20412;-52
2023/06/30 04:41:45;;;;;;;7.32;3.63;;;19.60;66.80;;;;;;4970717;28;20042;-53
2023/06/30 04:44:13;;;;;;;10.85;4.45;;;19.70;66.60;;;;;;4966549;28;20066;-53
2023/06/30 04:46:40;;;;;;;6.60;3.40;;;19.70;66.50;;;;;;4971125;28;20118;-52
2023/06/30 04:49:07;;;;;;;9.13;3.55;;;19.70;66.20;;;;;;4970031;28;20047;-52
2023/06/30 04:51:35;;;;;;;8.32;3.60;;;19.70;66.10;;;;;;4976556;28;20077;-52
2023/06/30 04:54:01;;;;;;;8.30;3.35;;;19.70;65.90;;;;;;4963058;28;20047;-53
2023/06/30 04:56:30;;;;;;;7.45;3.83;;;19.70;65.90;;;;;;4971795;28;20121;-52
2023/06/30 04:58:57;;;;;;;6.75;3.45;;;19.70;65.50;;;;;;4971089;28;20071;-52
2023/06/30 05:01:24;;;;;;;5.88;3.30;;;19.60;65.60;;;;;;4966672;28;20049;-53
2023/06/30 05:03:51;;;;;;;6.05;3.28;;;19.60;65.60;;;;;;4968350;28;20038;-53
2023/06/30 05:06:18;;;;;;;5.45;4.20;;;19.50;65.40;;;;;;4971501;28;20045;-52
2023/06/30 05:08:44;;;;;;;6.18;3.05;;;19.50;65.40;;;;;;4961360;28;20117;-52
2023/06/30 05:11:11;;;;;;;7.00;3.00;;;19.50;65.50;;;;;;4959626;28;20119;-52
2023/06/30 05:13:38;;;;;;;4.25;2.75;;;19.50;65.60;;;;;;4969187;28;20127;-52
2023/06/30 05:16:04;;;;;;;7.22;3.58;;;19.40;65.50;;;;;;4961840;28;20076;-52
2023/06/30 05:18:31;;;;;;;8.00;3.92;;;19.40;65.60;;;;;;4968225;28;20057;-51
2023/06/30 05:20:58;;;;;;;4.80;2.83;;;19.40;65.50;;;;;;4965549;28;20050;-52
2023/06/30 05:23:24;;;;;;;7.32;2.92;;;19.40;65.20;;;;;;4964897;28;20074;-54
2023/06/30 05:25:51;;;;;;;8.05;3.55;;;19.40;65.40;;;;;;4965796;28;20050;-52
2023/06/30 05:28:18;;;;;;;5.43;3.30;;;19.30;65.40;;;;;;4964786;28;20045;-52
2023/06/30 05:30:44;;;;;;;5.10;2.88;;;19.30;65.00;;;;;;4971433;28;20051;-53
2023/06/30 05:33:11;;;;;;;10.38;3.63;;;19.30;65.40;;;;;;4961715;28;20531;-52
2023/06/30 05:35:38;;;;;;;6.15;3.10;;;19.30;65.60;;;;;;4963056;28;20408;-53
2023/06/30 05:38:06;;;;;;;5.55;2.83;;;19.30;65.70;;;;;;4965379;28;20109;-53
2023/06/30 05:40:33;;;;;;;13.38;3.80;;;19.20;65.70;;;;;;4969906;28;20352;-53
2023/06/30 05:42:59;;;;;;;7.85;2.78;;;19.20;65.40;;;;;;4970519;28;20038;-53
2023/06/30 05:45:26;;;;;;;6.82;3.17;;;19.20;65.70;;;;;;4962292;28;20044;-53
2023/06/30 05:47:53;;;;;;;9.23;3.58;;;19.20;65.50;;;;;;4968889;28;20747;-53
2023/06/30 05:50:21;;;;;;;6.72;3.17;;;19.20;65.50;;;;;;4969879;28;20047;-53
2023/06/30 05:52:51;;;;;;;9.77;3.75;;;19.20;65.40;;;;;;4968091;28;20061;-52
2023/06/30 05:55:17;;;;;;;4.82;3.00;;;19.20;65.40;;;;;;4965967;28;20126;-52
2023/06/30 05:57:44;;;;;;;6.07;3.40;;;19.20;65.60;;;;;;4969456;28;20121;-51
2023/06/30 06:00:11;;;;;;;6.57;3.90;;;19.20;65.80;;;;;;4966016;28;20118;-53
2023/06/30 06:02:38;;;;;;;6.57;2.90;;;19.20;65.70;;;;;;4967198;28;20060;-53
2023/06/30 06:05:05;;;;;;;4.50;2.90;;;19.20;65.30;;;;;;4963706;28;20051;-53
2023/06/30 06:07:32;;;;;;;4.47;3.35;;;19.20;65.40;;;;;;4970054;28;20092;-52
2023/06/30 06:09:59;;;;;;;6.53;3.10;;;19.20;65.30;;;;;;4967645;28;20047;-53
2023/06/30 06:12:26;;;;;;;4.28;2.95;;;19.20;65.10;;;;;;4965116;28;20129;-53
2023/06/30 06:14:52;;;;;;;4.78;3.17;;;19.20;65.00;;;;;;4969667;28;20550;-52
2023/06/30 06:17:19;;;;;;;5.18;3.25;;;19.20;64.80;;;;;;4968228;28;20050;-53
2023/06/30 06:19:46;;;;;;;5.75;3.50;;;19.20;65.00;;;;;;4966666;28;20094;-53
2023/06/30 06:22:12;;;;;;;7.20;3.45;;;19.20;65.30;;;;;;4973503;28;20077;-53
2023/06/30 06:24:39;;;;;;;7.07;3.58;;;19.10;64.90;;;;;;4965525;28;20468;-53
2023/06/30 06:27:06;;;;;;;4.97;3.08;;;19.20;64.80;;;;;;4970116;28;20038;-53
2023/06/30 06:29:32;;;;;;;6.10;3.22;;;19.20;64.80;;;;;;4969471;28;20496;-53
2023/06/30 06:32:02;;;;;;;4.57;2.90;;;19.10;64.90;;;;;;4960952;28;20122;-52
2023/06/30 06:34:29;;;;;;;6.68;2.85;;;19.10;64.80;;;;;;4968783;28;20142;-53
2023/06/30 06:36:56;;;;;;;4.95;3.05;;;19.10;65.10;;;;;;4970768;28;20050;-53
2023/06/30 06:39:22;;;;;;;6.70;3.22;;;19.20;65.10;;;;;;4968900;28;20078;-51
2023/06/30 06:41:49;;;;;;;6.43;2.95;;;19.20;64.90;;;;;;4968857;28;20039;-52
2023/06/30 06:44:16;;;;;;;3.53;2.63;;;19.20;64.90;;;;;;4962005;28;20507;-54
2023/06/30 06:46:43;;;;;;;4.75;3.08;;;19.20;64.70;;;;;;4968547;28;20047;-53
2023/06/30 06:49:10;;;;;;;7.72;3.08;;;19.20;64.30;;;;;;4961016;28;20046;-53
2023/06/30 06:51:37;;;;;;;13.20;3.40;;;19.20;64.50;;;;;;4968477;28;20055;-53
2023/06/30 06:54:04;;;;;;;7.18;3.20;;;19.30;64.40;;;;;;4963570;28;20150;-53
2023/06/30 06:56:31;;;;;;;6.43;3.38;;;19.20;64.80;;;;;;4970335;28;20125;-54
2023/06/30 06:58:57;;;;;;;6.45;2.80;;;19.20;64.90;;;;;;4969588;28;20034;-54
2023/06/30 07:01:24;;;;;;;3.72;2.05;;;19.30;64.60;;;;;;4966743;28;20430;-54
2023/06/30 07:03:51;;;;;;;2.97;2.35;;;19.30;64.40;;;;;;4970860;28;20039;-54
2023/06/30 07:06:18;;;;;;;4.03;1.90;;;19.30;64.40;;;;;;4973218;28;20039;-52
2023/06/30 07:08:45;;;;;;;2.20;2.05;;;19.40;63.70;;;;;;4964435;28;20066;-53
2023/06/30 07:11:12;;;;;;;4.03;1.67;;;19.40;63.80;;;;;;4964611;28;20082;-54
2023/06/30 07:13:39;;;;;;;7.40;2.47;;;19.40;63.40;;;;;;4970592;28;20074;-54
2023/06/30 07:16:06;;;;;;;4.50;2.20;;;19.40;63.70;;;;;;4966048;28;20039;-54
2023/06/30 07:18:34;;;;;;;3.10;1.92;;;19.50;63.40;;;;;;4970228;28;20516;-54
2023/06/30 07:21:02;;;;;;;3.38;1.92;;;19.50;63.60;;;;;;4969223;28;20049;-54
2023/06/30 07:23:28;;;;;;;5.35;2.33;;;19.50;63.30;;;;;;4962435;28;20043;-53
2023/06/30 07:25:55;;;;;;;3.92;2.42;;;19.60;62.80;;;;;;4968633;28;20039;-54
2023/06/30 07:28:22;;;;;;;7.68;3.00;;;19.60;63.00;;;;;;4963838;28;20043;-54
2023/06/30 07:30:48;;;;;;;5.07;1.95;;;19.60;62.50;;;;;;4971461;28;20078;-53
2023/06/30 07:33:17;;;;;;;2.42;1.80;;;19.70;62.50;;;;;;4969505;28;20117;-53
2023/06/30 07:35:44;;;;;;;3.92;1.98;;;19.70;61.80;;;;;;4972201;28;20059;-54
2023/06/30 07:38:11;;;;;;;1.77;1.42;;;19.70;61.90;;;;;;4966397;28;20049;-54
2023/06/30 07:40:38;;;;;;;6.50;2.72;;;19.80;61.40;;;;;;4972363;28;20121;-54
2023/06/30 07:43:21;;;;;;;4.45;1.63;;;19.80;61.10;;;;;;4966956;28;20401;-53
2023/06/30 07:45:47;;;;;;;3.80;1.30;;;19.80;60.70;;;;;;4962736;28;20038;-54
2023/06/30 07:48:15;;;;;;;5.28;1.83;;;19.80;61.20;;;;;;4970937;28;20589;-53
2023/06/30 07:50:42;;;;;;;1.98;1.77;;;19.80;61.20;;;;;;4970015;28;20051;-54
2023/06/30 07:53:24;;;;;;;2.95;1.55;;;19.90;60.50;;;;;;4969081;28;20102;-54
2023/06/30 07:55:51;;;;;;;3.25;1.50;;;19.90;60.30;;;;;;4971263;28;20082;-53
2023/06/30 07:58:18;;;;;;;2.85;1.70;;;20.00;61.50;;;;;;4973123;28;20042;-53
2023/06/30 08:00:44;;;;;;;4.05;1.92;;;20.00;60.30;;;;;;4968689;28;20053;-54
2023/06/30 08:03:11;;;;;;;3.90;1.67;;;20.00;60.00;;;;;;4973434;28;20063;-51
2023/06/30 08:05:38;;;;;;;2.33;1.70;;;20.10;60.00;;;;;;4975348;28;20074;-53
2023/06/30 08:08:05;;;;;;;3.67;1.60;;;20.10;60.10;;;;;;4964536;28;20403;-54
2023/06/30 08:10:34;;;;;;;1.92;1.20;;;20.10;60.20;;;;;;4966887;28;20047;-54
2023/06/30 08:13:04;;;;;;;2.65;1.30;;;20.20;60.00;;;;;;4972691;28;20055;-54
2023/06/30 08:15:31;;;;;;;1.92;1.20;;;20.20;59.00;;;;;;4972556;28;20170;-54
2023/06/30 08:17:57;;;;;;;3.30;1.88;;;20.20;58.50;;;;;;4969278;28;20053;-53
2023/06/30 08:20:25;;;;;;;1.77;1.10;;;20.30;58.80;;;;;;4971069;28;20034;-54
2023/06/30 08:22:54;;;;;;;2.40;1.27;;;20.30;57.30;;;;;;4971027;28;20042;-54
2023/06/30 08:25:22;;;;;;;3.17;1.17;;;20.40;56.60;;;;;;4967775;28;20097;-52
2023/06/30 08:27:52;;;;;;;9.48;1.55;;;20.40;56.50;;;;;;4970794;28;20105;-53
2023/06/30 08:30:19;;;;;;;3.28;1.30;;;20.40;56.60;;;;;;4972159;28;20058;-53
2023/06/30 08:32:50;;;;;;;3.58;1.50;;;20.50;57.20;;;;;;4968766;28;20053;-54
2023/06/30 08:35:20;;;;;;;1.40;1.20;;;20.50;56.80;;;;;;4968132;28;20043;-53
2023/06/30 08:37:46;;;;;;;3.00;1.63;;;20.60;56.60;;;;;;4963493;28;20054;-54
2023/06/30 08:40:26;;;;;;;5.28;1.65;;;20.60;56.50;;;;;;4969734;28;20037;-54
2023/06/30 08:42:54;;;;;;;3.20;1.15;;;20.60;56.30;;;;;;4970826;28;20134;-54
2023/06/30 08:45:26;;;;;;;2.13;1.13;;;20.70;57.20;;;;;;4958220;28;20130;-54
2023/06/30 08:47:55;;;;;;;3.22;1.35;;;20.70;56.30;;;;;;4968591;28;20054;-54
2023/06/30 08:50:22;;;;;;;2.80;1.05;;;20.80;56.20;;;;;;4971466;28;20051;-54
2023/06/30 08:52:50;;;;;;;2.72;1.50;;;20.90;55.80;;;;;;4970311;28;20131;-53
2023/06/30 08:55:17;;;;;;;2.35;1.15;;;20.90;55.20;;;;;;4962299;28;20050;-54
2023/06/30 08:57:44;;;;;;;3.42;1.75;;;20.90;54.10;;;;;;4959084;28;20039;-54
2023/06/30 09:00:12;;;;;;;3.05;1.42;;;21.00;54.30;;;;;;4960225;28;20119;-54
2023/06/30 09:02:39;;;;;;;1.40;1.15;;;21.10;53.70;;;;;;4964679;28;20066;-53
2023/06/30 09:05:07;;;;;;;1.80;0.93;;;21.20;54.60;;;;;;4971583;28;20066;-55
2023/06/30 09:07:41;;;;;;;2.75;1.20;;;21.30;54.00;;;;;;4975018;28;20050;-54
2023/06/30 09:10:09;;;;;;;1.50;1.00;;;21.40;52.60;;;;;;4969767;28;20038;-53
2023/06/30 09:12:40;;;;;;;3.03;0.88;;;21.40;53.10;;;;;;4967842;28;20125;-54
2023/06/30 09:15:09;;;;;;;2.38;1.10;;;21.50;52.80;;;;;;4969775;28;20712;-54
2023/06/30 09:17:36;;;;;;;1.38;0.98;;;21.60;52.60;;;;;;4969348;28;20046;-53
2023/06/30 09:20:03;;;;;;;1.23;0.80;;;21.60;51.70;;;;;;4967021;28;20052;-54
2023/06/30 09:22:30;;;;;;;2.10;1.38;;;21.70;51.20;;;;;;4970749;28;20066;-53
2023/06/30 09:25:25;;;;;;;3.05;1.30;;;21.80;52.00;;;;;;4963295;28;20047;-54
2023/06/30 09:27:53;;;;;;;4.45;1.20;;;21.90;51.20;;;;;;4971043;28;20052;-50
2023/06/30 09:30:34;;;;;;;2.00;0.93;;;21.90;51.10;;;;;;4963418;28;20134;-54
2023/06/30 09:33:01;;;;;;;2.05;0.95;;;22.00;50.40;;;;;;4960461;28;20381;-53
2023/06/30 09:35:47;;;;;;;4.63;1.20;;;22.10;50.20;;;;;;4967615;28;20038;-53
2023/06/30 09:38:18;;;;;;;1.77;1.30;;;22.20;49.90;;;;;;4971985;28;20097;-54
2023/06/30 09:40:47;;;;;;;3.20;1.00;;;22.20;50.10;;;;;;4970077;28;20045;-54
2023/06/30 09:43:23;;;;;;;4.38;1.55;;;22.30;50.30;;;;;;4965881;28;20102;-54
2023/06/30 09:45:57;;;;;;;1.67;0.98;;;22.40;49.10;;;;;;4962930;28;20129;-54
2023/06/30 09:48:34;;;;;;;2.80;1.02;;;22.40;48.50;;;;;;4962319;28;20495;-53
2023/06/30 09:51:01;;;;;;;3.50;1.40;;;22.50;48.30;;;;;;4966164;28;20579;-53
2023/06/30 09:53:38;;;;;;;1.83;1.10;;;22.50;49.40;;;;;;4968734;28;20057;-53
2023/06/30 09:56:07;;;;;;;4.80;2.10;;;22.60;48.60;;;;;;4969871;28;20495;-54
2023/06/30 09:58:36;;;;;;;3.65;1.15;;;22.60;49.20;;;;;;4970858;28;20055;-54
2023/06/30 10:01:05;;;;;;;3.92;1.52;;;22.70;49.00;;;;;;4963742;28;20070;-54
2023/06/30 10:03:31;;;;;;;1.60;1.48;;;22.70;48.70;;;;;;4971240;28;20077;-54
2023/06/30 10:05:58;;;;;;;2.63;1.10;;;22.80;48.70;;;;;;4972560;28;20054;-54
2023/06/30 10:08:26;;;;;;;4.22;1.67;;;22.90;49.20;;;;;;4967716;28;20085;-54
2023/06/30 10:10:55;;;;;;;2.00;1.40;;;23.00;48.80;;;;;;4967923;28;20074;-53
2023/06/30 10:13:25;;;;;;;2.63;1.27;;;23.10;48.20;;;;;;4970162;28;20053;-54
2023/06/30 10:15:52;;;;;;;1.33;1.23;;;23.10;48.40;;;;;;4969131;28;20050;-53
2023/06/30 10:18:20;;;;;;;1.90;1.30;;;23.20;48.00;;;;;;4967487;28;20078;-54
2023/06/30 10:20:47;;;;;;;2.45;1.13;;;23.30;47.30;;;;;;4966053;28;20051;-54
2023/06/30 10:23:19;;;;;;;1.42;1.33;;;23.40;47.40;;;;;;4959936;28;20042;-54
2023/06/30 10:25:48;;;;;;;4.45;1.50;;;23.50;46.90;;;;;;4967338;28;20468;-54
2023/06/30 10:28:16;;;;;;;2.03;1.27;;;23.50;48.00;;;;;;4957117;28;20684;-54
2023/06/30 10:30:44;;;;;;;1.90;1.17;;;23.60;46.90;;;;;;4961826;28;20073;-54
2023/06/30 10:33:10;;;;;;;1.90;1.23;;;23.70;46.90;;;;;;4961969;28;20495;-54
2023/06/30 10:35:38;;;;;;;1.85;1.38;;;23.70;46.80;;;;;;4964398;28;20105;-53
2023/06/30 10:38:08;;;;;;;3.60;2.10;;;23.80;46.50;;;;;;4959446;28;20061;-54
2023/06/30 10:40:36;;;;;;;1.75;1.13;;;23.80;47.00;;;;;;4963934;28;20042;-54
2023/06/30 10:43:05;;;;;;;1.33;1.10;;;23.90;46.20;;;;;;4962849;28;20043;-54
2023/06/30 10:45:55;;;;;;;3.83;1.20;;;23.90;46.40;;;;;;4962822;28;20127;-55
2023/06/30 10:48:27;;;;;;;1.52;1.42;;;24.00;45.70;;;;;;4961337;28;20038;-54
2023/06/30 10:50:54;;;;;;;2.65;1.48;;;24.00;44.90;;;;;;4959301;28;20102;-54
2023/06/30 10:53:20;;;;;;;2.72;1.38;;;24.00;45.30;;;;;;4961054;28;20578;-53
2023/06/30 10:55:47;;;;;;;2.45;1.20;;;24.00;45.90;;;;;;4959992;28;20087;-54
2023/06/30 10:58:23;;;;;;;1.52;1.42;;;24.10;46.00;;;;;;4968073;28;20046;-54
2023/06/30 11:01:13;;;;;;;4.45;1.45;;;24.10;45.20;;;;;;4969728;28;20097;-54
2023/06/30 11:03:57;;;;;;;3.25;1.77;;;24.20;45.40;;;;;;4965659;28;20063;-53
2023/06/30 11:06:26;;;;;;;4.00;1.70;;;24.40;44.90;;;;;;4969083;28;20570;-54
2023/06/30 11:09:11;;;;;;;2.88;1.52;;;24.40;44.60;;;;;;4967142;28;20046;-54
2023/06/30 11:11:51;;;;;;;4.05;1.67;;;24.60;44.90;;;;;;4973364;28;20050;-53
2023/06/30 11:14:31;;;;;;;2.03;1.48;;;24.70;44.40;;;;;;4961334;28;20050;-53
2023/06/30 11:17:06;;;;;;;7.03;2.05;;;24.90;43.10;;;;;;4966405;28;20463;-54
2023/06/30 11:19:36;;;;;;;1.63;1.40;;;24.90;44.10;;;;;;4973852;28;20080;-54
2023/06/30 11:22:29;;;;;;;2.03;1.23;;;25.10;44.10;;;;;;4972968;28;20122;-54
2023/06/30 11:24:56;;;;;;;1.67;1.13;;;25.10;43.70;;;;;;4966024;28;20482;-54
2023/06/30 11:27:29;;;;;;;1.92;1.70;;;25.10;43.70;;;;;;4974026;28;20043;-54
2023/06/30 11:29:59;;;;;;;2.42;1.60;;;25.10;42.90;;;;;;4966781;28;20051;-54
2023/06/30 11:32:30;;;;;;;2.47;1.63;;;25.10;42.50;;;;;;4973104;28;20504;-52
2023/06/30 11:34:59;;;;;;;1.80;1.63;;;25.10;43.30;;;;;;4972678;28;20046;-54
2023/06/30 11:37:26;;;;;;;2.17;1.88;;;25.00;42.80;;;;;;4973373;28;20864;-54
2023/06/30 11:39:55;;;;;;;3.40;1.60;;;25.10;43.00;;;;;;4973248;28;20070;-52
2023/06/30 11:42:22;;;;;;;2.70;1.90;;;25.10;43.00;;;;;;4961134;28;20535;-50
2023/06/30 11:44:49;;;;;;;2.35;1.48;;;25.00;42.60;;;;;;4965391;28;20102;-54
2023/06/30 11:47:20;;;;;;;3.88;1.33;;;25.10;43.10;;;;;;4971251;28;20420;-54
2023/06/30 11:49:48;;;;;;;4.40;1.88;;;25.10;43.40;;;;;;4969769;28;20500;-53
2023/06/30 11:52:18;;;;;;;2.40;1.67;;;25.10;42.50;;;;;;4973122;28;20046;-54
2023/06/30 11:54:45;;;;;;;1.40;1.30;;;25.10;42.60;;;;;;4968034;28;20082;-54
2023/06/30 11:57:12;;;;;;;2.03;1.80;;;25.20;42.90;;;;;;4967418;28;20073;-54
2023/06/30 11:59:39;;;;;;;1.90;1.80;;;25.20;42.20;;;;;;4970011;28;20607;-50
2023/06/30 12:02:05;;;;;;;2.92;1.55;;;25.30;41.40;;;;;;4972738;28;20471;-54
2023/06/30 12:04:34;;;;;;;1.73;1.63;;;25.30;41.60;;;;;;4966663;28;20039;-50
2023/06/30 12:07:05;;;;;;;3.30;2.20;;;25.30;41.80;;;;;;4966938;28;20058;-54
2023/06/30 12:09:33;;;;;;;2.05;1.48;;;25.40;41.40;;;;;;4961456;28;20098;-50
2023/06/30 12:12:00;;;;;;;3.72;1.50;;;25.60;42.80;;;;;;4964099;28;20101;-54
2023/06/30 12:14:28;;;;;;;2.72;1.67;;;25.60;42.20;;;;;;4968536;28;20834;-50
2023/06/30 12:16:55;;;;;;;2.05;1.88;;;25.70;41.70;;;;;;4964940;28;20126;-53
2023/06/30 12:19:28;;;;;;;1.60;1.30;;;25.90;41.90;;;;;;4962418;28;20392;-51
2023/06/30 12:22:06;;;;;;;4.68;1.75;;;25.90;41.50;;;;;;4962682;28;20062;-53
2023/06/30 12:24:34;;;;;;;3.75;1.52;;;26.10;41.30;;;;;;4964761;28;20518;-50
2023/06/30 12:27:08;;;;;;;2.13;1.48;;;26.10;41.30;;;;;;4964148;28;20047;-54
2023/06/30 12:29:35;;;;;;;1.52;1.35;;;26.20;41.20;;;;;;4960373;28;20039;-51
2023/06/30 12:32:13;;;;;;;2.75;1.55;;;26.30;41.00;;;;;;4966141;28;20161;-54
2023/06/30 12:34:40;;;;;;;2.20;1.63;;;26.40;39.90;;;;;;4970427;28;20070;-53
2023/06/30 12:37:07;;;;;;;2.75;1.38;;;26.60;40.70;;;;;;4964429;28;20051;-53
2023/06/30 12:39:34;;;;;;;1.58;1.48;;;26.60;40.30;;;;;;4966232;28;20047;-52
2023/06/30 12:42:01;;;;;;;2.95;1.92;;;26.70;40.20;;;;;;4965772;28;20638;-54
2023/06/30 12:44:27;;;;;;;3.05;1.70;;;26.70;39.90;;;;;;4964615;28;20105;-53
2023/06/30 12:47:07;;;;;;;1.65;1.50;;;26.80;40.20;;;;;;4962978;28;20042;-54
2023/06/30 12:49:36;;;;;;;4.43;2.40;;;26.90;40.00;;;;;;4959127;28;20061;-54
2023/06/30 12:52:04;;;;;;;6.38;1.90;;;27.10;39.80;;;;;;4967440;28;20718;-53
2023/06/30 12:54:30;;;;;;;2.75;1.38;;;27.10;40.20;;;;;;4966232;28;20129;-52
2023/06/30 12:56:57;;;;;;;2.20;1.88;;;27.20;39.50;;;;;;4971911;28;20101;-50